sensor_id;sensor_type;location;lat;lon;timestamp;P1;durP1;ratioP1;P2;durP2;ratioP2
68234;SDS011;55052;52.056;5.296;2024-01-27T00:02:09;16.38;;;4.50;;
68234;SDS011;55052;52.056;5.296;2024-01-27T00:04:36;13.55;;;5.00;;
68234;SDS011;55052;52.056;5.296;2024-01-27T00:07:06;7.85;;;4.40;;
68234;SDS011;55052;52.056;5.296;2024-01-27T00:09:33;13.35;;;4.75;;
68234;SDS011;55052;52.056;5.296;2024-01-27T00:12:00;11.88;;;4.43;;
68234;SDS011;55052;52.056;5.296;2024-01-27T00:14:27;14.85;;;4.63;;
68234;SDS011;55052;52.056;5.296;2024-01-27T00:16:54;12.70;;;4.13;;
68234;SDS011;55052;52.056;5.296;2024-01-27T00:19:21;13.45;;;4.00;;
68234;SDS011;55052;52.056;5.296;2024-01-27T00:21:48;13.10;;;4.80;;
68234;SDS011;55052;52.056;5.296;2024-01-27T00:24:15;12.60;;;4.25;;
68234;SDS011;55052;52.056;5.296;2024-01-27T00:26:42;11.93;;;4.30;;
68234;SDS011;55052;52.056;5.296;2024-01-27T00:29:10;12.30;;;4.50;;
68234;SDS011;55052;52.056;5.296;2024-01-27T00:31:37;13.45;;;4.18;;
68234;SDS011;55052;52.056;5.296;2024-01-27T00:34:03;13.02;;;4.30;;
68234;SDS011;55052;52.056;5.296;2024-01-27T00:36:30;10.85;;;4.30;;
68234;SDS011;55052;52.056;5.296;2024-01-27T00:38:57;16.92;;;4.55;;
68234;SDS011;55052;52.056;5.296;2024-01-27T00:41:24;14.25;;;4.35;;
68234;SDS011;55052;52.056;5.296;2024-01-27T00:43:51;9.60;;;3.78;;
68234;SDS011;55052;52.056;5.296;2024-01-27T00:46:18;12.27;;;4.03;;
68234;SDS011;55052;52.056;5.296;2024-01-27T00:48:45;12.52;;;4.40;;
68234;SDS011;55052;52.056;5.296;2024-01-27T00:51:12;17.73;;;4.57;;
68234;SDS011;55052;52.056;5.296;2024-01-27T00:53:40;10.07;;;3.80;;
68234;SDS011;55052;52.056;5.296;2024-01-27T00:56:07;12.63;;;4.35;;
68234;SDS011;55052;52.056;5.296;2024-01-27T00:58:34;10.70;;;3.90;;
68234;SDS011;55052;52.056;5.296;2024-01-27T01:01:01;9.90;;;4.22;;
68234;SDS011;55052;52.056;5.296;2024-01-27T01:03:28;13.45;;;3.95;;
68234;SDS011;55052;52.056;5.296;2024-01-27T01:05:55;10.68;;;4.07;;
68234;SDS011;55052;52.056;5.296;2024-01-27T01:08:22;7.95;;;3.33;;
68234;SDS011;55052;52.056;5.296;2024-01-27T01:10:49;9.65;;;4.25;;
68234;SDS011;55052;52.056;5.296;2024-01-27T01:13:15;14.63;;;3.95;;
68234;SDS011;55052;52.056;5.296;2024-01-27T01:15:42;11.05;;;3.42;;
68234;SDS011;55052;52.056;5.296;2024-01-27T01:18:09;13.25;;;3.70;;
68234;SDS011;55052;52.056;5.296;2024-01-27T01:20:36;12.60;;;3.45;;
68234;SDS011;55052;52.056;5.296;2024-01-27T01:23:03;10.25;;;4.07;;
68234;SDS011;55052;52.056;5.296;2024-01-27T01:25:30;14.15;;;3.83;;
68234;SDS011;55052;52.056;5.296;2024-01-27T01:27:57;9.02;;;3.53;;
68234;SDS011;55052;52.056;5.296;2024-01-27T01:30:24;8.32;;;3.70;;
68234;SDS011;55052;52.056;5.296;2024-01-27T01:32:51;8.35;;;3.70;;
68234;SDS011;55052;52.056;5.296;2024-01-27T01:35:18;12.10;;;3.53;;
68234;SDS011;55052;52.056;5.296;2024-01-27T01:37:45;13.45;;;3.85;;
68234;SDS011;55052;52.056;5.296;2024-01-27T01:40:14;10.63;;;3.72;;
68234;SDS011;55052;52.056;5.296;2024-01-27T01:42:41;9.15;;;3.35;;
68234;SDS011;55052;52.056;5.296;2024-01-27T01:45:09;9.02;;;3.33;;
68234;SDS011;55052;52.056;5.296;2024-01-27T01:47:39;9.15;;;3.00;;
68234;SDS011;55052;52.056;5.296;2024-01-27T01:50:06;11.52;;;3.40;;
68234;SDS011;55052;52.056;5.296;2024-01-27T01:52:33;7.32;;;3.25;;
68234;SDS011;55052;52.056;5.296;2024-01-27T01:55:00;6.90;;;3.50;;
68234;SDS011;55052;52.056;5.296;2024-01-27T01:57:27;12.40;;;3.60;;
68234;SDS011;55052;52.056;5.296;2024-01-27T01:59:54;10.07;;;3.30;;
68234;SDS011;55052;52.056;5.296;2024-01-27T02:02:21;12.88;;;3.72;;
68234;SDS011;55052;52.056;5.296;2024-01-27T02:04:48;7.28;;;3.50;;
68234;SDS011;55052;52.056;5.296;2024-01-27T02:07:15;9.75;;;3.25;;
68234;SDS011;55052;52.056;5.296;2024-01-27T02:09:42;7.60;;;3.30;;
68234;SDS011;55052;52.056;5.296;2024-01-27T02:12:10;9.60;;;3.63;;
68234;SDS011;55052;52.056;5.296;2024-01-27T02:14:37;10.32;;;3.55;;
68234;SDS011;55052;52.056;5.296;2024-01-27T02:17:04;11.13;;;3.33;;
68234;SDS011;55052;52.056;5.296;2024-01-27T02:19:31;8.95;;;3.47;;
68234;SDS011;55052;52.056;5.296;2024-01-27T02:21:57;9.40;;;3.80;;
68234;SDS011;55052;52.056;5.296;2024-01-27T02:24:24;13.98;;;3.90;;
68234;SDS011;55052;52.056;5.296;2024-01-27T02:26:51;12.05;;;3.28;;
68234;SDS011;55052;52.056;5.296;2024-01-27T02:29:18;9.35;;;3.10;;
68234;SDS011;55052;52.056;5.296;2024-01-27T02:31:45;10.43;;;3.72;;
68234;SDS011;55052;52.056;5.296;2024-01-27T02:34:12;9.13;;;3.10;;
68234;SDS011;55052;52.056;5.296;2024-01-27T02:36:39;13.88;;;3.70;;
68234;SDS011;55052;52.056;5.296;2024-01-27T02:39:06;10.05;;;3.40;;
68234;SDS011;55052;52.056;5.296;2024-01-27T02:41:33;9.82;;;3.60;;
68234;SDS011;55052;52.056;5.296;2024-01-27T02:44:05;10.45;;;3.42;;
68234;SDS011;55052;52.056;5.296;2024-01-27T02:46:32;8.57;;;3.30;;
68234;SDS011;55052;52.056;5.296;2024-01-27T02:48:59;8.43;;;3.75;;
68234;SDS011;55052;52.056;5.296;2024-01-27T02:51:26;9.65;;;3.25;;
68234;SDS011;55052;52.056;5.296;2024-01-27T02:53:52;9.70;;;3.10;;
68234;SDS011;55052;52.056;5.296;2024-01-27T02:56:19;8.35;;;3.53;;
68234;SDS011;55052;52.056;5.296;2024-01-27T02:58:46;12.75;;;3.30;;
68234;SDS011;55052;52.056;5.296;2024-01-27T03:01:13;13.32;;;3.55;;
68234;SDS011;55052;52.056;5.296;2024-01-27T03:03:40;7.30;;;2.95;;
68234;SDS011;55052;52.056;5.296;2024-01-27T03:06:07;8.02;;;3.13;;
68234;SDS011;55052;52.056;5.296;2024-01-27T03:08:34;10.60;;;3.30;;
68234;SDS011;55052;52.056;5.296;2024-01-27T03:11:01;9.63;;;3.20;;
68234;SDS011;55052;52.056;5.296;2024-01-27T03:13:28;7.68;;;3.30;;
68234;SDS011;55052;52.056;5.296;2024-01-27T03:15:55;12.25;;;3.95;;
68234;SDS011;55052;52.056;5.296;2024-01-27T03:18:22;9.15;;;2.95;;
68234;SDS011;55052;52.056;5.296;2024-01-27T03:20:51;8.93;;;3.35;;
68234;SDS011;55052;52.056;5.296;2024-01-27T03:23:18;8.00;;;3.08;;
68234;SDS011;55052;52.056;5.296;2024-01-27T03:25:45;8.45;;;3.13;;
68234;SDS011;55052;52.056;5.296;2024-01-27T03:28:12;10.02;;;3.25;;
68234;SDS011;55052;52.056;5.296;2024-01-27T03:30:38;8.52;;;3.40;;
68234;SDS011;55052;52.056;5.296;2024-01-27T03:33:05;8.38;;;3.22;;
68234;SDS011;55052;52.056;5.296;2024-01-27T03:35:37;10.20;;;3.20;;
68234;SDS011;55052;52.056;5.296;2024-01-27T03:38:05;11.30;;;3.70;;
68234;SDS011;55052;52.056;5.296;2024-01-27T03:40:31;6.72;;;3.65;;
68234;SDS011;55052;52.056;5.296;2024-01-27T03:42:58;11.35;;;3.30;;
68234;SDS011;55052;52.056;5.296;2024-01-27T03:45:25;11.30;;;3.30;;
68234;SDS011;55052;52.056;5.296;2024-01-27T03:47:52;9.05;;;3.25;;
68234;SDS011;55052;52.056;5.296;2024-01-27T03:50:19;7.90;;;3.38;;
68234;SDS011;55052;52.056;5.296;2024-01-27T03:52:46;8.70;;;2.92;;
68234;SDS011;55052;52.056;5.296;2024-01-27T03:55:13;11.20;;;4.03;;
68234;SDS011;55052;52.056;5.296;2024-01-27T03:57:40;6.80;;;3.55;;
68234;SDS011;55052;52.056;5.296;2024-01-27T04:00:07;7.10;;;3.35;;
68234;SDS011;55052;52.056;5.296;2024-01-27T04:02:34;10.68;;;3.60;;
68234;SDS011;55052;52.056;5.296;2024-01-27T04:05:01;10.07;;;3.70;;
68234;SDS011;55052;52.056;5.296;2024-01-27T04:07:28;10.30;;;4.50;;
68234;SDS011;55052;52.056;5.296;2024-01-27T04:09:55;7.63;;;3.30;;
68234;SDS011;55052;52.056;5.296;2024-01-27T04:12:22;9.10;;;3.67;;
68234;SDS011;55052;52.056;5.296;2024-01-27T04:14:49;11.63;;;3.40;;
68234;SDS011;55052;52.056;5.296;2024-01-27T04:17:16;9.02;;;3.30;;
68234;SDS011;55052;52.056;5.296;2024-01-27T04:19:43;10.00;;;3.60;;
68234;SDS011;55052;52.056;5.296;2024-01-27T04:22:10;12.43;;;3.60;;
68234;SDS011;55052;52.056;5.296;2024-01-27T04:24:37;8.23;;;3.28;;
68234;SDS011;55052;52.056;5.296;2024-01-27T04:27:04;7.85;;;3.25;;
68234;SDS011;55052;52.056;5.296;2024-01-27T04:29:30;9.65;;;3.72;;
68234;SDS011;55052;52.056;5.296;2024-01-27T04:31:57;6.93;;;3.13;;
68234;SDS011;55052;52.056;5.296;2024-01-27T04:34:24;11.20;;;3.63;;
68234;SDS011;55052;52.056;5.296;2024-01-27T04:36:51;7.97;;;3.40;;
68234;SDS011;55052;52.056;5.296;2024-01-27T04:39:18;9.18;;;3.25;;
68234;SDS011;55052;52.056;5.296;2024-01-27T04:41:45;9.32;;;3.38;;
68234;SDS011;55052;52.056;5.296;2024-01-27T04:44:12;7.75;;;3.35;;
68234;SDS011;55052;52.056;5.296;2024-01-27T04:46:39;14.38;;;3.80;;
68234;SDS011;55052;52.056;5.296;2024-01-27T04:49:06;8.88;;;3.30;;
68234;SDS011;55052;52.056;5.296;2024-01-27T04:51:33;8.00;;;3.28;;
68234;SDS011;55052;52.056;5.296;2024-01-27T04:53:59;8.73;;;4.07;;
68234;SDS011;55052;52.056;5.296;2024-01-27T04:56:26;12.60;;;4.07;;
68234;SDS011;55052;52.056;5.296;2024-01-27T04:58:53;10.05;;;3.83;;
68234;SDS011;55052;52.056;5.296;2024-01-27T05:01:20;9.88;;;3.67;;
68234;SDS011;55052;52.056;5.296;2024-01-27T05:03:47;11.68;;;3.90;;
68234;SDS011;55052;52.056;5.296;2024-01-27T05:06:14;9.95;;;3.70;;
68234;SDS011;55052;52.056;5.296;2024-01-27T05:08:41;11.20;;;3.85;;
68234;SDS011;55052;52.056;5.296;2024-01-27T05:11:08;10.13;;;3.67;;
68234;SDS011;55052;52.056;5.296;2024-01-27T05:13:35;8.88;;;3.42;;
68234;SDS011;55052;52.056;5.296;2024-01-27T05:16:04;8.15;;;3.60;;
68234;SDS011;55052;52.056;5.296;2024-01-27T05:18:31;8.30;;;3.30;;
68234;SDS011;55052;52.056;5.296;2024-01-27T05:20:58;10.45;;;3.80;;
68234;SDS011;55052;52.056;5.296;2024-01-27T05:23:25;8.02;;;4.30;;
68234;SDS011;55052;52.056;5.296;2024-01-27T05:25:52;9.13;;;4.20;;
68234;SDS011;55052;52.056;5.296;2024-01-27T05:28:19;9.07;;;3.78;;
68234;SDS011;55052;52.056;5.296;2024-01-27T05:30:46;9.10;;;3.97;;
68234;SDS011;55052;52.056;5.296;2024-01-27T05:33:13;9.43;;;4.28;;
68234;SDS011;55052;52.056;5.296;2024-01-27T05:35:40;6.68;;;3.80;;
68234;SDS011;55052;52.056;5.296;2024-01-27T05:38:07;7.97;;;3.72;;
68234;SDS011;55052;52.056;5.296;2024-01-27T05:40:34;13.77;;;3.92;;
68234;SDS011;55052;52.056;5.296;2024-01-27T05:43:05;7.72;;;3.92;;
68234;SDS011;55052;52.056;5.296;2024-01-27T05:45:31;8.93;;;3.90;;
68234;SDS011;55052;52.056;5.296;2024-01-27T05:47:59;9.07;;;3.80;;
68234;SDS011;55052;52.056;5.296;2024-01-27T05:50:26;12.10;;;4.03;;
68234;SDS011;55052;52.056;5.296;2024-01-27T05:52:53;13.88;;;4.32;;
68234;SDS011;55052;52.056;5.296;2024-01-27T05:55:19;9.13;;;4.00;;
68234;SDS011;55052;52.056;5.296;2024-01-27T05:57:46;10.77;;;3.80;;
68234;SDS011;55052;52.056;5.296;2024-01-27T06:00:13;10.63;;;4.28;;
68234;SDS011;55052;52.056;5.296;2024-01-27T06:02:40;13.43;;;4.57;;
68234;SDS011;55052;52.056;5.296;2024-01-27T06:05:07;10.98;;;4.10;;
68234;SDS011;55052;52.056;5.296;2024-01-27T06:07:37;9.45;;;3.78;;
68234;SDS011;55052;52.056;5.296;2024-01-27T06:10:07;8.90;;;3.80;;
68234;SDS011;55052;52.056;5.296;2024-01-27T06:12:34;11.88;;;3.80;;
68234;SDS011;55052;52.056;5.296;2024-01-27T06:15:02;8.23;;;4.05;;
68234;SDS011;55052;52.056;5.296;2024-01-27T06:17:29;9.85;;;4.10;;
68234;SDS011;55052;52.056;5.296;2024-01-27T06:19:56;9.15;;;4.35;;
68234;SDS011;55052;52.056;5.296;2024-01-27T06:22:23;11.45;;;4.15;;
68234;SDS011;55052;52.056;5.296;2024-01-27T06:24:50;8.20;;;4.28;;
68234;SDS011;55052;52.056;5.296;2024-01-27T06:27:17;9.45;;;4.38;;
68234;SDS011;55052;52.056;5.296;2024-01-27T06:29:44;7.32;;;3.80;;
68234;SDS011;55052;52.056;5.296;2024-01-27T06:32:11;9.23;;;4.70;;
68234;SDS011;55052;52.056;5.296;2024-01-27T06:34:39;9.20;;;4.45;;
68234;SDS011;55052;52.056;5.296;2024-01-27T06:37:06;12.77;;;4.70;;
68234;SDS011;55052;52.056;5.296;2024-01-27T06:39:32;13.23;;;5.50;;
68234;SDS011;55052;52.056;5.296;2024-01-27T06:41:59;9.43;;;4.95;;
68234;SDS011;55052;52.056;5.296;2024-01-27T06:44:26;14.25;;;5.40;;
68234;SDS011;55052;52.056;5.296;2024-01-27T06:46:53;10.45;;;5.15;;
68234;SDS011;55052;52.056;5.296;2024-01-27T06:49:20;11.10;;;5.25;;
68234;SDS011;55052;52.056;5.296;2024-01-27T06:51:47;10.77;;;4.63;;
68234;SDS011;55052;52.056;5.296;2024-01-27T06:54:13;12.20;;;4.88;;
68234;SDS011;55052;52.056;5.296;2024-01-27T06:56:40;10.07;;;4.78;;
68234;SDS011;55052;52.056;5.296;2024-01-27T06:59:08;11.93;;;4.60;;
68234;SDS011;55052;52.056;5.296;2024-01-27T07:01:35;9.52;;;4.95;;
68234;SDS011;55052;52.056;5.296;2024-01-27T07:04:02;12.35;;;5.70;;
68234;SDS011;55052;52.056;5.296;2024-01-27T07:06:29;10.18;;;5.20;;
68234;SDS011;55052;52.056;5.296;2024-01-27T07:08:56;16.98;;;5.40;;
68234;SDS011;55052;52.056;5.296;2024-01-27T07:11:23;12.27;;;5.60;;
68234;SDS011;55052;52.056;5.296;2024-01-27T07:13:49;13.52;;;5.20;;
68234;SDS011;55052;52.056;5.296;2024-01-27T07:16:16;13.80;;;5.53;;
68234;SDS011;55052;52.056;5.296;2024-01-27T07:18:43;12.82;;;5.13;;
68234;SDS011;55052;52.056;5.296;2024-01-27T07:21:14;10.48;;;5.15;;
68234;SDS011;55052;52.056;5.296;2024-01-27T07:23:42;14.40;;;5.13;;
68234;SDS011;55052;52.056;5.296;2024-01-27T07:26:10;13.23;;;5.47;;
68234;SDS011;55052;52.056;5.296;2024-01-27T07:28:37;8.98;;;4.93;;
68234;SDS011;55052;52.056;5.296;2024-01-27T07:31:04;12.75;;;6.03;;
68234;SDS011;55052;52.056;5.296;2024-01-27T07:33:31;11.93;;;5.40;;
68234;SDS011;55052;52.056;5.296;2024-01-27T07:35:58;10.98;;;5.35;;
68234;SDS011;55052;52.056;5.296;2024-01-27T07:38:25;13.35;;;5.93;;
68234;SDS011;55052;52.056;5.296;2024-01-27T07:40:53;11.43;;;5.80;;
68234;SDS011;55052;52.056;5.296;2024-01-27T07:43:19;11.55;;;5.78;;
68234;SDS011;55052;52.056;5.296;2024-01-27T07:45:46;10.10;;;5.70;;
68234;SDS011;55052;52.056;5.296;2024-01-27T07:48:13;9.40;;;5.05;;
68234;SDS011;55052;52.056;5.296;2024-01-27T07:50:40;12.43;;;5.75;;
68234;SDS011;55052;52.056;5.296;2024-01-27T07:53:12;12.90;;;5.85;;
68234;SDS011;55052;52.056;5.296;2024-01-27T07:55:39;14.30;;;6.15;;
68234;SDS011;55052;52.056;5.296;2024-01-27T07:58:05;12.23;;;6.00;;
68234;SDS011;55052;52.056;5.296;2024-01-27T08:00:32;11.77;;;5.18;;
68234;SDS011;55052;52.056;5.296;2024-01-27T08:02:59;15.77;;;5.95;;
68234;SDS011;55052;52.056;5.296;2024-01-27T08:05:26;12.25;;;5.95;;
68234;SDS011;55052;52.056;5.296;2024-01-27T08:07:53;13.18;;;6.03;;
68234;SDS011;55052;52.056;5.296;2024-01-27T08:10:21;14.52;;;5.80;;
68234;SDS011;55052;52.056;5.296;2024-01-27T08:12:48;13.48;;;6.35;;
68234;SDS011;55052;52.056;5.296;2024-01-27T08:15:15;16.60;;;6.18;;
68234;SDS011;55052;52.056;5.296;2024-01-27T08:17:42;11.63;;;6.55;;
68234;SDS011;55052;52.056;5.296;2024-01-27T08:20:09;13.00;;;6.35;;
68234;SDS011;55052;52.056;5.296;2024-01-27T08:22:36;14.00;;;6.30;;
68234;SDS011;55052;52.056;5.296;2024-01-27T08:25:03;10.50;;;5.78;;
68234;SDS011;55052;52.056;5.296;2024-01-27T08:27:30;11.07;;;6.22;;
68234;SDS011;55052;52.056;5.296;2024-01-27T08:29:57;14.20;;;6.60;;
68234;SDS011;55052;52.056;5.296;2024-01-27T08:32:24;15.23;;;6.22;;
68234;SDS011;55052;52.056;5.296;2024-01-27T08:34:51;13.32;;;7.05;;
68234;SDS011;55052;52.056;5.296;2024-01-27T08:37:18;14.93;;;6.70;;
68234;SDS011;55052;52.056;5.296;2024-01-27T08:39:46;15.75;;;7.22;;
68234;SDS011;55052;52.056;5.296;2024-01-27T08:42:13;13.27;;;6.22;;
68234;SDS011;55052;52.056;5.296;2024-01-27T08:44:40;13.20;;;6.50;;
68234;SDS011;55052;52.056;5.296;2024-01-27T08:47:07;10.23;;;6.47;;
68234;SDS011;55052;52.056;5.296;2024-01-27T08:49:34;14.27;;;7.15;;
68234;SDS011;55052;52.056;5.296;2024-01-27T08:52:01;14.98;;;7.57;;
68234;SDS011;55052;52.056;5.296;2024-01-27T08:54:28;12.45;;;6.68;;
68234;SDS011;55052;52.056;5.296;2024-01-27T08:56:55;9.88;;;6.25;;
68234;SDS011;55052;52.056;5.296;2024-01-27T08:59:22;14.60;;;7.25;;
68234;SDS011;55052;52.056;5.296;2024-01-27T09:01:49;12.57;;;6.47;;
68234;SDS011;55052;52.056;5.296;2024-01-27T09:04:15;15.05;;;6.47;;
68234;SDS011;55052;52.056;5.296;2024-01-27T09:06:43;11.88;;;6.30;;
68234;SDS011;55052;52.056;5.296;2024-01-27T09:09:10;11.70;;;6.50;;
68234;SDS011;55052;52.056;5.296;2024-01-27T09:11:38;11.88;;;6.65;;
68234;SDS011;55052;52.056;5.296;2024-01-27T09:14:05;16.08;;;6.68;;
68234;SDS011;55052;52.056;5.296;2024-01-27T09:16:33;15.32;;;7.10;;
68234;SDS011;55052;52.056;5.296;2024-01-27T09:19:00;14.73;;;7.68;;
68234;SDS011;55052;52.056;5.296;2024-01-27T09:21:27;15.73;;;8.13;;
68234;SDS011;55052;52.056;5.296;2024-01-27T09:23:58;16.35;;;8.20;;
68234;SDS011;55052;52.056;5.296;2024-01-27T09:26:25;18.02;;;8.43;;
68234;SDS011;55052;52.056;5.296;2024-01-27T09:28:52;16.20;;;8.82;;
68234;SDS011;55052;52.056;5.296;2024-01-27T09:31:22;21.33;;;11.32;;
68234;SDS011;55052;52.056;5.296;2024-01-27T09:33:50;18.77;;;9.90;;
68234;SDS011;55052;52.056;5.296;2024-01-27T09:36:19;23.48;;;10.00;;
68234;SDS011;55052;52.056;5.296;2024-01-27T09:38:46;21.52;;;9.43;;
68234;SDS011;55052;52.056;5.296;2024-01-27T09:41:13;19.25;;;8.80;;
68234;SDS011;55052;52.056;5.296;2024-01-27T09:43:44;19.15;;;9.48;;
68234;SDS011;55052;52.056;5.296;2024-01-27T09:46:12;21.90;;;9.82;;
68234;SDS011;55052;52.056;5.296;2024-01-27T09:48:39;21.88;;;9.25;;
68234;SDS011;55052;52.056;5.296;2024-01-27T09:51:07;17.85;;;9.77;;
68234;SDS011;55052;52.056;5.296;2024-01-27T09:53:36;24.85;;;10.18;;
68234;SDS011;55052;52.056;5.296;2024-01-27T09:56:03;21.30;;;10.05;;
68234;SDS011;55052;52.056;5.296;2024-01-27T09:58:32;22.70;;;10.45;;
68234;SDS011;55052;52.056;5.296;2024-01-27T10:00:59;25.48;;;10.80;;
68234;SDS011;55052;52.056;5.296;2024-01-27T10:03:27;21.85;;;10.70;;
68234;SDS011;55052;52.056;5.296;2024-01-27T10:05:55;30.33;;;10.38;;
68234;SDS011;55052;52.056;5.296;2024-01-27T10:08:23;27.92;;;12.20;;
68234;SDS011;55052;52.056;5.296;2024-01-27T10:10:52;18.10;;;9.77;;
68234;SDS011;55052;52.056;5.296;2024-01-27T10:13:20;27.85;;;11.43;;
68234;SDS011;55052;52.056;5.296;2024-01-27T10:16:00;24.23;;;10.73;;
68234;SDS011;55052;52.056;5.296;2024-01-27T10:18:28;30.48;;;21.35;;
68234;SDS011;55052;52.056;5.296;2024-01-27T10:20:56;23.95;;;10.43;;
68234;SDS011;55052;52.056;5.296;2024-01-27T10:23:23;19.75;;;10.48;;
68234;SDS011;55052;52.056;5.296;2024-01-27T10:25:50;26.52;;;11.38;;
68234;SDS011;55052;52.056;5.296;2024-01-27T10:28:21;28.08;;;11.23;;
68234;SDS011;55052;52.056;5.296;2024-01-27T10:30:49;32.83;;;13.55;;
68234;SDS011;55052;52.056;5.296;2024-01-27T10:33:16;21.02;;;10.57;;
68234;SDS011;55052;52.056;5.296;2024-01-27T10:35:43;28.30;;;11.77;;
68234;SDS011;55052;52.056;5.296;2024-01-27T10:38:10;23.27;;;11.25;;
68234;SDS011;55052;52.056;5.296;2024-01-27T10:40:37;20.27;;;10.63;;
68234;SDS011;55052;52.056;5.296;2024-01-27T10:43:05;25.33;;;11.45;;
68234;SDS011;55052;52.056;5.296;2024-01-27T10:45:37;21.52;;;9.65;;
68234;SDS011;55052;52.056;5.296;2024-01-27T10:48:08;22.73;;;10.48;;
68234;SDS011;55052;52.056;5.296;2024-01-27T10:50:39;18.23;;;10.75;;
68234;SDS011;55052;52.056;5.296;2024-01-27T10:53:19;21.25;;;9.80;;
68234;SDS011;55052;52.056;5.296;2024-01-27T10:55:52;30.35;;;11.18;;
68234;SDS011;55052;52.056;5.296;2024-01-27T10:58:23;19.38;;;9.55;;
68234;SDS011;55052;52.056;5.296;2024-01-27T11:00:50;25.75;;;10.55;;
68234;SDS011;55052;52.056;5.296;2024-01-27T11:03:19;24.98;;;10.07;;
68234;SDS011;55052;52.056;5.296;2024-01-27T11:05:48;25.98;;;9.80;;
68234;SDS011;55052;52.056;5.296;2024-01-27T11:08:18;24.63;;;10.00;;
68234;SDS011;55052;52.056;5.296;2024-01-27T11:10:45;26.05;;;9.77;;
68234;SDS011;55052;52.056;5.296;2024-01-27T11:13:12;24.95;;;10.57;;
68234;SDS011;55052;52.056;5.296;2024-01-27T11:15:50;19.83;;;9.70;;
68234;SDS011;55052;52.056;5.296;2024-01-27T11:18:18;22.60;;;9.23;;
68234;SDS011;55052;52.056;5.296;2024-01-27T11:20:45;23.42;;;9.32;;
68234;SDS011;55052;52.056;5.296;2024-01-27T11:23:12;21.95;;;9.00;;
68234;SDS011;55052;52.056;5.296;2024-01-27T11:25:42;26.80;;;9.70;;
68234;SDS011;55052;52.056;5.296;2024-01-27T11:28:12;19.13;;;8.32;;
68234;SDS011;55052;52.056;5.296;2024-01-27T11:30:47;19.38;;;9.30;;
68234;SDS011;55052;52.056;5.296;2024-01-27T11:33:14;26.30;;;9.02;;
68234;SDS011;55052;52.056;5.296;2024-01-27T11:35:42;16.95;;;9.23;;
68234;SDS011;55052;52.056;5.296;2024-01-27T11:38:09;23.60;;;8.30;;
68234;SDS011;55052;52.056;5.296;2024-01-27T11:40:46;18.65;;;9.32;;
68234;SDS011;55052;52.056;5.296;2024-01-27T11:43:13;21.30;;;7.97;;
68234;SDS011;55052;52.056;5.296;2024-01-27T11:45:40;19.00;;;7.78;;
68234;SDS011;55052;52.056;5.296;2024-01-27T11:48:07;17.60;;;8.30;;
68234;SDS011;55052;52.056;5.296;2024-01-27T11:50:35;19.15;;;8.00;;
68234;SDS011;55052;52.056;5.296;2024-01-27T11:53:01;24.08;;;9.82;;
68234;SDS011;55052;52.056;5.296;2024-01-27T11:55:28;23.50;;;9.02;;
68234;SDS011;55052;52.056;5.296;2024-01-27T11:57:55;24.42;;;8.40;;
68234;SDS011;55052;52.056;5.296;2024-01-27T12:00:22;16.13;;;7.60;;
68234;SDS011;55052;52.056;5.296;2024-01-27T12:02:50;18.42;;;8.30;;
68234;SDS011;55052;52.056;5.296;2024-01-27T12:05:18;21.35;;;7.65;;
68234;SDS011;55052;52.056;5.296;2024-01-27T12:07:45;19.83;;;8.07;;
68234;SDS011;55052;52.056;5.296;2024-01-27T12:10:11;23.67;;;8.43;;
68234;SDS011;55052;52.056;5.296;2024-01-27T12:12:38;19.88;;;8.57;;
68234;SDS011;55052;52.056;5.296;2024-01-27T12:15:05;30.20;;;7.82;;
68234;SDS011;55052;52.056;5.296;2024-01-27T12:17:32;21.05;;;8.07;;
68234;SDS011;55052;52.056;5.296;2024-01-27T12:20:00;23.33;;;8.32;;
68234;SDS011;55052;52.056;5.296;2024-01-27T12:22:29;20.52;;;7.85;;
68234;SDS011;55052;52.056;5.296;2024-01-27T12:25:07;19.05;;;7.97;;
68234;SDS011;55052;52.056;5.296;2024-01-27T12:27:35;22.92;;;8.75;;
68234;SDS011;55052;52.056;5.296;2024-01-27T12:30:03;20.23;;;7.65;;
68234;SDS011;55052;52.056;5.296;2024-01-27T12:32:30;22.08;;;7.40;;
68234;SDS011;55052;52.056;5.296;2024-01-27T12:34:58;20.13;;;7.20;;
68234;SDS011;55052;52.056;5.296;2024-01-27T12:37:30;22.40;;;7.10;;
68234;SDS011;55052;52.056;5.296;2024-01-27T12:39:57;21.42;;;8.07;;
68234;SDS011;55052;52.056;5.296;2024-01-27T12:42:23;16.75;;;6.60;;
68234;SDS011;55052;52.056;5.296;2024-01-27T12:44:50;22.33;;;6.97;;
68234;SDS011;55052;52.056;5.296;2024-01-27T12:47:17;14.50;;;7.03;;
68234;SDS011;55052;52.056;5.296;2024-01-27T12:49:46;12.30;;;5.45;;
68234;SDS011;55052;52.056;5.296;2024-01-27T12:52:13;19.52;;;6.00;;
68234;SDS011;55052;52.056;5.296;2024-01-27T12:54:40;17.63;;;5.63;;
68234;SDS011;55052;52.056;5.296;2024-01-27T12:57:07;22.05;;;5.53;;
68234;SDS011;55052;52.056;5.296;2024-01-27T12:59:35;16.90;;;5.35;;
68234;SDS011;55052;52.056;5.296;2024-01-27T13:02:02;18.80;;;7.90;;
68234;SDS011;55052;52.056;5.296;2024-01-27T13:04:29;17.92;;;6.18;;
68234;SDS011;55052;52.056;5.296;2024-01-27T13:06:55;17.27;;;5.93;;
68234;SDS011;55052;52.056;5.296;2024-01-27T13:09:23;15.80;;;5.40;;
68234;SDS011;55052;52.056;5.296;2024-01-27T13:11:50;21.65;;;5.80;;
68234;SDS011;55052;52.056;5.296;2024-01-27T13:14:16;18.67;;;6.50;;
68234;SDS011;55052;52.056;5.296;2024-01-27T13:16:46;16.40;;;5.85;;
68234;SDS011;55052;52.056;5.296;2024-01-27T13:19:13;21.50;;;6.30;;
68234;SDS011;55052;52.056;5.296;2024-01-27T13:21:40;17.35;;;6.65;;
68234;SDS011;55052;52.056;5.296;2024-01-27T13:24:07;18.73;;;6.40;;
68234;SDS011;55052;52.056;5.296;2024-01-27T13:26:35;19.73;;;6.63;;
68234;SDS011;55052;52.056;5.296;2024-01-27T13:29:05;20.70;;;6.90;;
68234;SDS011;55052;52.056;5.296;2024-01-27T13:31:32;22.08;;;6.60;;
68234;SDS011;55052;52.056;5.296;2024-01-27T13:34:00;23.15;;;7.13;;
68234;SDS011;55052;52.056;5.296;2024-01-27T13:36:28;19.60;;;7.13;;
68234;SDS011;55052;52.056;5.296;2024-01-27T13:38:55;20.73;;;7.40;;
68234;SDS011;55052;52.056;5.296;2024-01-27T13:41:23;18.98;;;7.70;;
68234;SDS011;55052;52.056;5.296;2024-01-27T13:43:49;24.55;;;10.68;;
68234;SDS011;55052;52.056;5.296;2024-01-27T13:46:16;22.48;;;10.35;;
68234;SDS011;55052;52.056;5.296;2024-01-27T13:48:43;19.23;;;9.02;;
68234;SDS011;55052;52.056;5.296;2024-01-27T13:51:10;25.02;;;9.05;;
68234;SDS011;55052;52.056;5.296;2024-01-27T13:53:37;21.45;;;8.75;;
68234;SDS011;55052;52.056;5.296;2024-01-27T13:56:13;21.08;;;7.13;;
68234;SDS011;55052;52.056;5.296;2024-01-27T13:58:40;19.33;;;8.18;;
68234;SDS011;55052;52.056;5.296;2024-01-27T14:01:08;23.02;;;7.07;;
68234;SDS011;55052;52.056;5.296;2024-01-27T14:03:35;20.13;;;7.35;;
68234;SDS011;55052;52.056;5.296;2024-01-27T14:06:03;14.85;;;6.40;;
68234;SDS011;55052;52.056;5.296;2024-01-27T14:08:32;24.75;;;7.90;;
68234;SDS011;55052;52.056;5.296;2024-01-27T14:10:59;19.48;;;6.97;;
68234;SDS011;55052;52.056;5.296;2024-01-27T14:13:26;21.00;;;7.30;;
68234;SDS011;55052;52.056;5.296;2024-01-27T14:15:53;18.15;;;7.45;;
68234;SDS011;55052;52.056;5.296;2024-01-27T14:18:19;18.73;;;6.47;;
68234;SDS011;55052;52.056;5.296;2024-01-27T14:20:48;17.52;;;6.47;;
68234;SDS011;55052;52.056;5.296;2024-01-27T14:23:16;16.48;;;5.70;;
68234;SDS011;55052;52.056;5.296;2024-01-27T14:25:44;17.05;;;5.85;;
68234;SDS011;55052;52.056;5.296;2024-01-27T14:28:13;17.50;;;6.25;;
68234;SDS011;55052;52.056;5.296;2024-01-27T14:30:41;19.50;;;5.97;;
68234;SDS011;55052;52.056;5.296;2024-01-27T14:33:08;18.33;;;6.00;;
68234;SDS011;55052;52.056;5.296;2024-01-27T14:35:35;19.80;;;6.95;;
68234;SDS011;55052;52.056;5.296;2024-01-27T14:38:03;21.27;;;6.22;;